createdAt,value
2024-05-09T00:09:38.357Z,1.40
2024-05-09T00:19:40.254Z,2.03
2024-05-09T00:29:41.901Z,2.83
2024-05-09T00:39:43.564Z,3.07
2024-05-09T00:49:45.680Z,3.10
2024-05-09T00:59:47.867Z,3.30
2024-05-09T01:09:49.583Z,2.67
2024-05-09T01:19:51.267Z,3.00
2024-05-09T01:29:52.968Z,2.17
2024-05-09T01:39:54.621Z,2.40
2024-05-09T01:49:56.323Z,2.55
2024-05-09T01:59:58.040Z,2.67
2024-05-09T02:09:59.655Z,3.10
2024-05-09T02:20:01.411Z,3.07
2024-05-09T02:30:04.749Z,2.90
2024-05-09T02:40:11.729Z,2.88
2024-05-09T02:50:23.062Z,3.57
2024-05-09T03:00:38.196Z,4.13
2024-05-09T03:10:42.979Z,4.33
2024-05-09T03:20:45.006Z,4.10
2024-05-09T03:30:46.760Z,5.15
2024-05-09T03:40:50.238Z,5.67
2024-05-09T03:50:52.586Z,6.70
2024-05-09T04:00:54.398Z,6.87
2024-05-09T04:10:56.075Z,7.50
2024-05-09T04:20:57.835Z,8.10
2024-05-09T04:30:59.495Z,8.80
2024-05-09T04:41:01.190Z,9.13
2024-05-09T04:51:03.163Z,9.37
2024-05-09T05:01:05.034Z,9.27
2024-05-09T05:11:06.870Z,9.05
2024-05-09T05:21:08.668Z,9.90
2024-05-09T05:31:10.410Z,11.27
2024-05-09T05:41:12.215Z,10.60
2024-05-09T05:51:14.052Z,11.87
2024-05-09T06:01:16.108Z,11.88
2024-05-09T06:11:18.020Z,13.07
2024-05-09T06:21:19.825Z,14.52
2024-05-09T06:31:21.502Z,14.40
2024-05-09T06:41:23.238Z,18.43
2024-05-09T06:51:24.951Z,14.63
2024-05-09T07:01:26.676Z,16.73
2024-05-09T07:11:28.444Z,14.25
2024-05-09T07:21:30.196Z,12.73
2024-05-09T07:31:31.863Z,8.80
2024-05-09T07:41:33.688Z,6.95
2024-05-09T07:53:14.125Z,7.13
2024-05-09T08:01:57.175Z,6.45
2024-05-09T08:11:59.024Z,5.83
2024-05-09T08:22:00.886Z,5.57
2024-05-09T08:32:02.978Z,5.18
2024-05-09T08:42:07.419Z,5.93
2024-05-09T08:52:09.512Z,5.35
2024-05-09T09:02:14.228Z,4.63
2024-05-09T09:12:16.042Z,4.73
2024-05-09T09:22:17.776Z,4.10
2024-05-09T09:32:19.609Z,5.23
2024-05-09T09:42:23.272Z,4.57
2024-05-09T09:52:26.706Z,2.80
2024-05-09T10:02:28.534Z,2.77
2024-05-09T10:12:30.334Z,3.25
2024-05-09T10:22:32.150Z,2.47
2024-05-09T10:32:40.785Z,2.72
2024-05-09T10:42:42.557Z,2.03
2024-05-09T10:52:44.224Z,2.17
2024-05-09T11:02:47.916Z,2.10
2024-05-09T11:12:49.611Z,2.03
2024-05-09T11:22:51.301Z,1.80
2024-05-09T11:32:53.374Z,1.80
2024-05-09T11:42:55.217Z,2.10
2024-05-09T11:52:56.940Z,2.20
2024-05-09T12:02:58.604Z,2.17
2024-05-09T12:13:00.360Z,1.88
2024-05-09T12:23:02.062Z,2.03
2024-05-09T12:33:04.020Z,1.87
2024-05-09T12:43:10.277Z,1.70
2024-05-09T12:53:13.100Z,1.70
2024-05-09T13:03:15.143Z,2.08
2024-05-09T13:13:17.355Z,1.37
2024-05-09T13:23:19.200Z,1.83
2024-05-09T13:33:21.000Z,1.70
2024-05-09T13:43:22.858Z,1.90
2024-05-09T13:53:24.649Z,2.22
2024-05-09T14:03:26.442Z,1.90
2024-05-09T14:13:28.270Z,2.03
2024-05-09T14:23:29.961Z,1.65
2024-05-09T14:33:31.868Z,1.50
2024-05-09T14:43:33.707Z,2.70
2024-05-09T14:53:35.467Z,1.63
2024-05-09T15:03:37.291Z,1.23
2024-05-09T15:13:39.067Z,1.50
2024-05-09T15:23:41.304Z,1.63
2024-05-09T15:33:43.422Z,1.63
2024-05-09T15:43:45.127Z,1.63
2024-05-09T15:53:47.080Z,1.30
2024-05-09T16:03:49.383Z,1.58
2024-05-09T16:13:53.965Z,1.87
2024-05-09T16:23:55.959Z,1.33
2024-05-09T16:33:57.784Z,1.30
2024-05-09T16:43:59.549Z,1.97
2024-05-09T16:54:01.191Z,1.48
2024-05-09T17:04:03.058Z,1.20
2024-05-09T17:14:04.888Z,1.23
2024-05-09T17:24:06.724Z,1.40
2024-05-09T17:34:11.274Z,1.80
2024-05-09T17:44:13.087Z,1.55
2024-05-09T17:54:14.766Z,2.30
2024-05-09T18:04:17.823Z,2.45
2024-05-09T18:14:19.633Z,1.90
2024-05-09T18:24:21.386Z,2.40
2024-05-09T18:34:23.096Z,2.05
2024-05-09T18:44:24.843Z,1.40
2024-05-09T18:54:27.531Z,1.77
2024-05-09T19:04:29.430Z,1.47
2024-05-09T19:14:31.166Z,1.70
2024-05-09T19:24:33.047Z,1.77
2024-05-09T19:34:34.735Z,2.23
2024-05-09T19:44:36.400Z,2.50
2024-05-09T19:54:38.300Z,2.93
2024-05-09T20:04:40.116Z,2.40
2024-05-09T20:14:41.841Z,2.38
2024-05-09T20:24:43.578Z,2.60
2024-05-09T20:34:45.279Z,2.40
2024-05-09T20:44:46.930Z,2.30
2024-05-09T20:54:48.637Z,2.13
2024-05-09T21:04:50.466Z,2.63
2024-05-09T21:14:52.240Z,2.73
2024-05-09T21:24:53.935Z,2.20
2024-05-09T21:34:55.664Z,2.53
2024-05-09T21:44:57.390Z,2.77
2024-05-09T21:54:59.075Z,2.47
2024-05-09T22:05:00.914Z,2.73
2024-05-09T22:15:02.790Z,2.83
2024-05-09T22:25:04.741Z,2.13
2024-05-09T22:35:06.724Z,2.87
2024-05-09T22:45:09.884Z,2.50
2024-05-09T22:55:11.532Z,2.67
2024-05-09T23:05:13.346Z,2.42
2024-05-09T23:15:15.042Z,2.50
2024-05-09T23:25:16.732Z,2.60
2024-05-09T23:35:18.409Z,2.80
2024-05-09T23:45:20.158Z,2.87
2024-05-09T23:55:21.968Z,2.92
